createdAt,value
2018-04-21T00:00:40.138Z,93.00
2018-04-21T00:03:08.029Z,93.10
2018-04-21T00:05:35.884Z,92.70
2018-04-21T00:08:03.919Z,92.70
2018-04-21T00:10:32.036Z,92.80
2018-04-21T00:12:59.855Z,93.00
2018-04-21T00:15:28.432Z,93.30
2018-04-21T00:17:57.166Z,93.50
2018-04-21T00:20:25.044Z,93.50
2018-04-21T00:22:53.787Z,94.00
2018-04-21T00:25:21.684Z,94.00
2018-04-21T00:27:49.541Z,94.10
2018-04-21T00:30:17.458Z,94.10
2018-04-21T00:32:45.445Z,94.20
2018-04-21T00:35:14.036Z,94.20
2018-04-21T00:37:42.793Z,94.10
2018-04-21T00:40:10.584Z,94.10
2018-04-21T00:42:38.498Z,93.90
2018-04-21T00:45:06.777Z,93.80
2018-04-21T00:47:34.633Z,93.80
2018-04-21T00:50:02.485Z,93.80
2018-04-21T00:52:31.191Z,93.70
2018-04-21T00:54:58.920Z,93.80
2018-04-21T00:57:26.651Z,93.70
2018-04-21T00:59:54.732Z,93.70
2018-04-21T01:02:22.697Z,93.60
2018-04-21T01:04:50.559Z,93.70
2018-04-21T01:07:21.028Z,93.70
2018-04-21T01:09:48.820Z,93.80
2018-04-21T01:12:16.626Z,93.90
2018-04-21T01:14:44.388Z,94.00
2018-04-21T01:17:12.333Z,94.10
2018-04-21T01:19:40.495Z,94.10
2018-04-21T01:22:08.319Z,93.90
2018-04-21T01:24:36.200Z,93.80
2018-04-21T01:27:04.050Z,93.80
2018-04-21T01:29:31.796Z,93.90
2018-04-21T01:31:59.488Z,93.90
2018-04-21T01:37:20.541Z,93.90
2018-04-21T01:39:48.314Z,93.90
2018-04-21T01:42:17.405Z,94.10
2018-04-21T01:44:45.245Z,94.10
2018-04-21T01:47:13.092Z,94.00
2018-04-21T01:49:40.973Z,93.80
2018-04-21T01:52:09.167Z,93.70
2018-04-21T01:54:38.173Z,93.50
2018-04-21T01:57:06.028Z,93.20
2018-04-21T02:02:07.597Z,93.30
2018-04-21T02:04:35.464Z,93.20
2018-04-21T02:07:04.630Z,93.00
2018-04-21T02:09:33.529Z,92.90
2018-04-21T02:12:02.095Z,92.40
2018-04-21T02:14:30.060Z,92.70
2018-04-21T02:16:57.877Z,92.00
2018-04-21T02:19:25.684Z,91.80
2018-04-21T02:21:53.416Z,91.70
2018-04-21T02:24:21.218Z,91.70
2018-04-21T02:26:50.085Z,91.60
2018-04-21T02:29:17.789Z,91.50
2018-04-21T02:31:46.355Z,91.20
2018-04-21T02:34:14.067Z,91.20
2018-04-21T02:36:42.580Z,91.10
2018-04-21T02:39:10.379Z,91.00
2018-04-21T02:41:38.157Z,91.10
2018-04-21T02:44:06.882Z,91.00
2018-04-21T02:46:35.407Z,90.80
2018-04-21T02:49:03.213Z,90.80
2018-04-21T02:51:30.909Z,90.80
2018-04-21T02:53:58.622Z,90.80
2018-04-21T02:56:26.398Z,90.70
2018-04-21T02:58:54.140Z,90.70
2018-04-21T03:01:21.894Z,90.70
2018-04-21T03:03:49.606Z,90.60
2018-04-21T03:06:17.457Z,90.60
2018-04-21T03:08:45.664Z,90.50
2018-04-21T03:11:13.405Z,90.40
2018-04-21T03:13:41.096Z,90.40
2018-04-21T03:16:08.830Z,90.40
2018-04-21T03:18:36.549Z,90.40
2018-04-21T03:21:05.037Z,90.20
2018-04-21T03:23:32.815Z,90.20
2018-04-21T03:26:00.510Z,89.80
2018-04-21T03:28:28.247Z,89.10
2018-04-21T03:30:55.960Z,88.50
2018-04-21T03:33:23.730Z,88.00
2018-04-21T03:35:51.439Z,87.80
2018-04-21T03:38:19.197Z,87.90
2018-04-21T03:40:47.717Z,87.80
2018-04-21T03:43:15.461Z,87.80
2018-04-21T03:45:43.214Z,87.60
2018-04-21T03:48:11.695Z,87.40
2018-04-21T03:50:39.421Z,87.40
2018-04-21T03:53:07.141Z,87.10
2018-04-21T03:55:34.847Z,87.00
2018-04-21T03:58:02.601Z,86.90
2018-04-21T04:00:30.352Z,86.80
2018-04-21T04:02:58.086Z,86.70
2018-04-21T04:05:26.627Z,86.50
2018-04-21T04:07:54.367Z,86.40
2018-04-21T04:10:22.132Z,86.40
2018-04-21T04:12:50.717Z,86.40
2018-04-21T04:25:21.732Z,88.80
2018-04-21T04:27:49.597Z,89.40
2018-04-21T04:30:17.310Z,90.00
2018-04-21T04:32:45.014Z,90.10
2018-04-21T04:35:12.783Z,90.30
2018-04-21T04:37:41.279Z,90.60
2018-04-21T04:40:09.092Z,90.60
2018-04-21T04:42:36.847Z,90.50
2018-04-21T04:45:04.613Z,90.60
2018-04-21T04:47:32.370Z,90.60
2018-04-21T04:50:00.129Z,90.70
2018-04-21T04:52:27.826Z,90.70
2018-04-21T04:54:55.593Z,90.60
2018-04-21T04:57:23.333Z,90.50
2018-04-21T04:59:51.093Z,90.30
2018-04-21T05:02:18.886Z,90.10
2018-04-21T05:04:46.644Z,89.90
2018-04-21T05:07:14.412Z,89.60
2018-04-21T05:09:42.181Z,89.20
2018-04-21T05:12:09.945Z,89.00
2018-04-21T05:14:37.671Z,89.00
2018-04-21T05:17:05.461Z,89.10
2018-04-21T05:19:33.263Z,89.20
2018-04-21T05:22:01.033Z,89.20
2018-04-21T05:24:28.760Z,89.30
2018-04-21T05:26:56.462Z,89.20
2018-04-21T05:29:24.242Z,89.00
2018-04-21T05:31:51.974Z,88.80
2018-04-21T05:34:19.719Z,88.60
2018-04-21T05:36:47.518Z,88.60
2018-04-21T05:39:15.566Z,88.50
2018-04-21T05:41:43.427Z,88.00
2018-04-21T05:44:11.254Z,87.30
2018-04-21T05:46:39.011Z,86.50
2018-04-21T05:49:07.557Z,85.40
2018-04-21T05:51:36.131Z,84.70
2018-04-21T05:54:03.905Z,84.70
2018-04-21T05:56:32.457Z,82.60
2018-04-21T05:59:03.913Z,82.60
2018-04-21T06:01:31.714Z,82.20
2018-04-21T06:04:00.232Z,81.70
2018-04-21T06:06:27.971Z,81.70
2018-04-21T06:08:55.739Z,81.50
2018-04-21T06:11:23.498Z,81.30
2018-04-21T06:13:52.013Z,81.60
2018-04-21T06:16:19.792Z,81.00
2018-04-21T06:18:47.532Z,80.80
2018-04-21T06:21:15.382Z,80.60
2018-04-21T06:23:43.914Z,80.30
2018-04-21T06:26:11.631Z,80.20
2018-04-21T06:28:40.177Z,79.90
2018-04-21T06:31:07.926Z,79.90
2018-04-21T06:33:35.658Z,79.50
2018-04-21T06:36:03.403Z,79.30
2018-04-21T06:38:31.936Z,78.50
2018-04-21T06:40:59.852Z,79.00
2018-04-21T06:43:27.747Z,77.70
2018-04-21T06:45:55.595Z,77.20
2018-04-21T06:48:24.175Z,77.10
2018-04-21T06:50:52.769Z,76.80
2018-04-21T06:53:20.642Z,76.80
2018-04-21T06:55:48.385Z,76.80
2018-04-21T06:58:17.391Z,76.50
2018-04-21T07:00:46.019Z,76.20
2018-04-21T07:03:14.281Z,76.20
2018-04-21T07:05:42.204Z,75.30
2018-04-21T07:08:11.181Z,74.70
2018-04-21T07:10:39.143Z,74.30
2018-04-21T07:13:07.057Z,71.90
2018-04-21T07:15:35.661Z,72.50
2018-04-21T07:18:03.400Z,72.40
2018-04-21T07:20:31.341Z,71.80
2018-04-21T07:22:59.921Z,71.30
2018-04-21T07:25:27.699Z,71.80
2018-04-21T07:27:55.645Z,71.10
2018-04-21T07:30:24.561Z,71.10
2018-04-21T07:32:52.515Z,70.30
2018-04-21T07:35:20.398Z,70.30
2018-04-21T07:37:48.269Z,70.30
2018-04-21T07:40:16.818Z,70.30
2018-04-21T07:42:44.951Z,70.50
2018-04-21T07:45:12.747Z,70.70
2018-04-21T07:47:40.530Z,70.50
2018-04-21T07:50:09.187Z,69.90
2018-04-21T07:52:37.728Z,70.00
2018-04-21T07:55:05.536Z,70.00
2018-04-21T07:57:34.113Z,70.00
2018-04-21T08:00:02.640Z,69.70
2018-04-21T08:02:31.205Z,69.70
2018-04-21T08:05:04.017Z,69.90
2018-04-21T08:07:32.653Z,71.10
2018-04-21T08:10:00.505Z,70.50
2018-04-21T08:12:28.234Z,70.10
2018-04-21T08:14:56.033Z,70.80
2018-04-21T08:17:23.834Z,70.90
2018-04-21T08:19:51.613Z,71.80
2018-04-21T08:22:19.329Z,72.70
2018-04-21T08:24:47.110Z,74.50
2018-04-21T08:27:14.938Z,75.00
2018-04-21T08:29:42.711Z,74.90
2018-04-21T08:32:11.436Z,74.50
2018-04-21T08:34:39.174Z,74.40
2018-04-21T08:37:08.539Z,73.70
2018-04-21T08:39:36.326Z,73.60
2018-04-21T08:42:04.532Z,73.90
2018-04-21T08:44:33.201Z,73.10
2018-04-21T08:47:01.792Z,73.80
2018-04-21T08:49:29.857Z,73.70
2018-04-21T08:51:57.741Z,73.50
2018-04-21T08:54:27.290Z,72.80
2018-04-21T08:56:55.388Z,72.80
2018-04-21T08:59:23.265Z,72.70
2018-04-21T09:01:51.494Z,72.30
2018-04-21T09:04:19.483Z,72.20
2018-04-21T09:06:47.860Z,72.00
2018-04-21T09:09:15.669Z,70.00
2018-04-21T09:11:45.368Z,68.90
2018-04-21T09:14:13.422Z,68.10
2018-04-21T09:16:41.409Z,66.20
2018-04-21T09:19:09.244Z,64.60
2018-04-21T09:21:37.048Z,63.70
2018-04-21T09:24:04.862Z,64.20
2018-04-21T09:26:33.387Z,63.60
2018-04-21T09:29:01.503Z,63.60
2018-04-21T09:31:29.487Z,63.80
2018-04-21T09:33:58.301Z,64.20
2018-04-21T09:36:26.325Z,64.10
2018-04-21T09:38:54.296Z,63.70
2018-04-21T09:41:23.173Z,62.40
2018-04-21T09:43:51.510Z,62.50
2018-04-21T09:46:19.313Z,62.70
2018-04-21T09:48:47.198Z,62.60
2018-04-21T09:51:15.022Z,62.80
2018-04-21T09:53:43.008Z,63.00
2018-04-21T09:56:11.515Z,63.00
2018-04-21T09:58:39.673Z,63.80
2018-04-21T10:01:07.605Z,63.80
2018-04-21T10:03:36.475Z,64.30
2018-04-21T10:06:04.417Z,64.30
2018-04-21T10:08:32.294Z,64.00
2018-04-21T10:11:00.146Z,64.30
2018-04-21T10:13:28.126Z,63.00
2018-04-21T10:15:55.968Z,63.40
2018-04-21T10:18:23.862Z,63.50
2018-04-21T10:20:51.802Z,63.80
2018-04-21T10:23:20.680Z,63.90
2018-04-21T10:25:48.930Z,63.80
2018-04-21T10:28:16.908Z,62.90
2018-04-21T10:30:44.739Z,62.10
2018-04-21T10:33:12.585Z,62.40
2018-04-21T10:35:41.223Z,61.80
2018-04-21T10:38:09.104Z,61.90
2018-04-21T10:40:37.665Z,60.70
2018-04-21T10:43:05.554Z,60.70
2018-04-21T10:45:33.765Z,60.60
2018-04-21T10:48:02.297Z,60.40
2018-04-21T10:50:30.058Z,59.80
2018-04-21T10:52:57.846Z,59.80
2018-04-21T10:55:26.040Z,59.60
2018-04-21T10:57:55.033Z,59.90
2018-04-21T11:00:22.971Z,59.80
2018-04-21T11:02:51.000Z,60.20
2018-04-21T11:05:18.899Z,60.40
2018-04-21T11:07:46.775Z,60.40
2018-04-21T11:10:14.670Z,60.90
2018-04-21T11:12:42.530Z,61.20
2018-04-21T11:15:10.413Z,61.40
2018-04-21T11:17:38.609Z,62.80
2018-04-21T11:20:07.174Z,63.60
2018-04-21T11:22:35.009Z,63.60
2018-04-21T11:25:03.017Z,63.70
2018-04-21T11:27:30.825Z,63.80
2018-04-21T11:29:59.475Z,65.00
2018-04-21T11:32:31.990Z,65.00
2018-04-21T11:35:00.794Z,67.90
2018-04-21T11:37:28.946Z,67.80
2018-04-21T11:39:57.198Z,70.30
2018-04-21T11:42:25.382Z,71.90
2018-04-21T11:44:53.457Z,73.40
2018-04-21T11:47:21.677Z,75.20
2018-04-21T11:49:50.257Z,77.50
2018-04-21T11:52:18.049Z,77.50
2018-04-21T11:54:45.907Z,80.40
2018-04-21T11:57:13.832Z,83.80
2018-04-21T11:59:42.568Z,86.00
2018-04-21T12:02:10.507Z,88.20
2018-04-21T12:04:38.346Z,90.00
2018-04-21T12:07:06.211Z,90.40
2018-04-21T12:09:34.889Z,91.00
2018-04-21T12:12:02.741Z,91.40
2018-04-21T12:14:30.623Z,91.80
2018-04-21T12:16:58.417Z,91.90
2018-04-21T12:19:26.181Z,92.10
2018-04-21T12:21:54.816Z,92.60
2018-04-21T12:24:22.665Z,92.50
2018-04-21T12:26:50.505Z,92.70
2018-04-21T12:29:18.376Z,92.80
2018-04-21T12:31:46.174Z,92.50
2018-04-21T12:34:14.064Z,92.50
2018-04-21T12:36:42.297Z,92.40
2018-04-21T12:39:10.237Z,92.00
2018-04-21T12:41:38.749Z,91.80
2018-04-21T12:44:06.853Z,91.70
2018-04-21T12:46:34.931Z,91.50
2018-04-21T12:49:02.975Z,91.00
2018-04-21T12:51:30.841Z,90.20
2018-04-21T12:53:58.636Z,88.70
2018-04-21T12:56:27.225Z,84.20
2018-04-21T12:58:55.116Z,84.10
2018-04-21T13:01:23.233Z,81.70
2018-04-21T13:03:51.317Z,80.50
2018-04-21T13:06:19.383Z,78.50
2018-04-21T13:08:47.312Z,74.40
2018-04-21T13:11:16.054Z,69.90
2018-04-21T13:13:44.301Z,69.90
2018-04-21T13:16:12.886Z,71.40
2018-04-21T13:18:42.371Z,70.60
2018-04-21T13:21:10.348Z,69.20
2018-04-21T13:23:39.278Z,64.20
2018-04-21T13:26:07.754Z,64.00
2018-04-21T13:28:35.725Z,61.50
2018-04-21T13:31:03.999Z,60.40
2018-04-21T13:33:32.058Z,57.30
2018-04-21T13:36:00.145Z,53.70
2018-04-21T13:38:27.927Z,53.00
2018-04-21T13:40:56.677Z,53.30
2018-04-21T13:43:25.365Z,51.50
2018-04-21T13:45:53.746Z,51.40
2018-04-21T13:48:21.712Z,50.40
2018-04-21T13:50:50.953Z,48.10
2018-04-21T13:53:18.959Z,48.00
2018-04-21T13:55:46.746Z,46.30
2018-04-21T13:58:14.884Z,44.60
2018-04-21T14:00:43.347Z,43.60
2018-04-21T14:03:11.127Z,40.60
2018-04-21T14:05:39.343Z,38.80
2018-04-21T14:08:07.298Z,38.00
2018-04-21T14:10:35.473Z,37.10
2018-04-21T14:13:03.443Z,36.70
2018-04-21T14:15:31.258Z,35.60
2018-04-21T14:17:59.857Z,35.50
2018-04-21T14:20:28.006Z,35.50
2018-04-21T14:22:56.422Z,35.50
2018-04-21T14:25:24.565Z,34.60
2018-04-21T14:27:52.700Z,34.50
2018-04-21T14:30:20.684Z,35.50
2018-04-21T14:32:49.958Z,34.90
2018-04-21T14:35:17.868Z,34.10
2018-04-21T14:37:46.025Z,33.60
2018-04-21T14:40:14.005Z,33.80
2018-04-21T14:42:42.789Z,31.60
2018-04-21T14:45:11.235Z,31.60
2018-04-21T14:47:39.227Z,33.40
2018-04-21T14:50:08.142Z,33.10
2018-04-21T14:52:36.110Z,32.70
2018-04-21T14:55:04.302Z,32.50
2018-04-21T14:57:32.862Z,31.30
2018-04-21T15:00:01.620Z,31.30
2018-04-21T15:02:30.555Z,30.40
2018-04-21T15:04:58.609Z,30.90
2018-04-21T15:07:28.832Z,30.70
2018-04-21T15:09:56.911Z,30.70
2018-04-21T15:12:24.921Z,31.50
2018-04-21T15:14:52.803Z,33.30
2018-04-21T15:17:21.391Z,31.40
2018-04-21T15:19:49.152Z,31.40
2018-04-21T15:22:16.972Z,30.30
2018-04-21T15:24:44.721Z,30.10
2018-04-21T15:27:12.468Z,30.20
2018-04-21T15:29:41.052Z,30.00
2018-04-21T15:32:10.268Z,30.20
2018-04-21T15:34:39.048Z,30.10
2018-04-21T15:37:07.524Z,29.60
2018-04-21T15:39:35.306Z,29.70
2018-04-21T15:42:03.831Z,28.30
2018-04-21T15:44:31.676Z,28.30
2018-04-21T15:46:59.485Z,28.50
2018-04-21T15:49:27.225Z,27.80
2018-04-21T15:51:55.254Z,27.30
2018-04-21T15:54:23.055Z,27.70
2018-04-21T15:56:50.806Z,27.70
2018-04-21T15:59:19.666Z,28.20
2018-04-21T16:01:47.902Z,28.20
2018-04-21T16:04:15.792Z,27.70
2018-04-21T16:06:43.713Z,27.50
2018-04-21T16:09:11.509Z,27.50
2018-04-21T16:11:39.368Z,27.90
2018-04-21T16:14:07.102Z,27.40
2018-04-21T16:16:34.857Z,27.20
2018-04-21T16:19:02.785Z,27.10
2018-04-21T16:21:30.574Z,26.80
2018-04-21T16:23:58.325Z,26.80
2018-04-21T16:26:26.126Z,28.10
2018-04-21T16:28:54.573Z,26.90
2018-04-21T16:31:22.332Z,27.20
2018-04-21T16:33:50.139Z,26.80
2018-04-21T16:36:17.900Z,27.20
2018-04-21T16:38:45.731Z,27.20
2018-04-21T16:41:14.104Z,27.00
2018-04-21T16:43:44.224Z,26.70
2018-04-21T16:46:12.790Z,26.70
2018-04-21T16:48:44.965Z,26.70
2018-04-21T16:51:12.973Z,26.30
2018-04-21T16:53:40.753Z,25.90
2018-04-21T16:56:08.459Z,26.30
2018-04-21T16:58:36.332Z,25.90
2018-04-21T17:01:04.076Z,26.00
2018-04-21T17:03:32.310Z,26.00
2018-04-21T17:06:00.228Z,26.20
2018-04-21T17:08:28.042Z,27.00
2018-04-21T17:10:56.158Z,28.20
2018-04-21T17:13:24.072Z,28.90
2018-04-21T17:15:51.854Z,30.10
2018-04-21T17:18:20.597Z,32.70
2018-04-21T17:20:48.402Z,32.70
2018-04-21T17:23:16.934Z,34.60
2018-04-21T17:25:44.717Z,34.60
2018-04-21T17:28:12.485Z,35.50
2018-04-21T17:30:41.037Z,36.50
2018-04-21T17:33:09.114Z,37.20
2018-04-21T17:35:40.947Z,37.90
2018-04-21T17:38:09.031Z,38.30
2018-04-21T17:40:38.134Z,39.00
2018-04-21T17:43:07.479Z,38.90
2018-04-21T17:45:38.530Z,39.60
2018-04-21T17:48:06.920Z,39.60
2018-04-21T17:50:34.758Z,40.10
2018-04-21T17:53:04.280Z,40.10
2018-04-21T17:55:32.032Z,40.20
2018-04-21T17:57:59.777Z,40.60
2018-04-21T18:00:27.548Z,40.80
2018-04-21T18:02:55.429Z,41.20
2018-04-21T18:05:23.184Z,41.90
2018-04-21T18:07:50.982Z,41.90
2018-04-21T18:10:18.746Z,44.00
2018-04-21T18:12:46.751Z,44.90
2018-04-21T18:15:14.571Z,45.90
2018-04-21T18:17:42.422Z,44.60
2018-04-21T18:20:11.126Z,43.60
2018-04-21T18:22:39.870Z,43.80
2018-04-21T18:25:07.674Z,43.80
2018-04-21T18:27:35.517Z,44.00
2018-04-21T18:30:04.113Z,44.10
2018-04-21T18:32:32.795Z,44.20
2018-04-21T18:35:01.418Z,44.30
2018-04-21T18:37:29.333Z,44.30
2018-04-21T18:39:57.159Z,44.60
2018-04-21T18:42:25.105Z,45.20
2018-04-21T18:44:54.111Z,46.00
2018-04-21T18:47:22.050Z,45.90
2018-04-21T18:49:50.782Z,46.70
2018-04-21T18:52:18.634Z,46.70
2018-04-21T18:54:48.058Z,47.30
2018-04-21T18:57:16.762Z,47.80
2018-04-21T18:59:47.526Z,48.10
2018-04-21T22:05:49.369Z,64.30
2018-04-21T22:08:17.650Z,68.30
2018-04-21T22:10:46.005Z,72.20
2018-04-21T22:13:14.853Z,79.30
2018-04-21T22:15:42.605Z,79.20
2018-04-21T22:18:10.347Z,82.00
2018-04-21T22:20:38.182Z,83.80
2018-04-21T22:23:06.068Z,85.20
2018-04-21T22:25:34.632Z,86.80
2018-04-21T22:28:02.860Z,86.80
2018-04-21T22:30:30.783Z,86.70
2018-04-21T22:32:58.593Z,87.10
2018-04-21T22:35:26.357Z,87.40
2018-04-21T22:37:55.407Z,88.50
2018-04-21T22:40:23.273Z,88.40
2018-04-21T22:42:51.065Z,88.70
2018-04-21T22:45:19.046Z,89.00
2018-04-21T22:47:47.833Z,88.70
2018-04-21T22:50:16.639Z,88.60
2018-04-21T22:52:45.176Z,89.20
2018-04-21T22:55:12.965Z,89.10
2018-04-21T22:57:40.734Z,88.80
2018-04-21T23:00:08.974Z,88.30
2018-04-21T23:02:36.780Z,88.00
2018-04-21T23:05:05.323Z,86.80
2018-04-21T23:07:33.086Z,86.80
2018-04-21T23:10:00.810Z,87.00
2018-04-21T23:12:29.321Z,88.90
2018-04-21T23:14:57.796Z,89.30
2018-04-21T23:17:26.365Z,88.80
2018-04-21T23:19:54.929Z,88.20
2018-04-21T23:22:22.865Z,88.20
2018-04-21T23:24:50.822Z,86.90
2018-04-21T23:27:18.568Z,85.80
2018-04-21T23:29:47.429Z,84.60
2018-04-21T23:32:15.345Z,84.60
2018-04-21T23:34:43.094Z,84.50
2018-04-21T23:37:11.401Z,84.50
2018-04-21T23:39:39.146Z,84.50
2018-04-21T23:42:07.957Z,84.70
2018-04-21T23:44:36.577Z,85.20
2018-04-21T23:47:04.495Z,85.10
2018-04-21T23:49:33.001Z,85.90
2018-04-21T23:52:00.791Z,86.30
2018-04-21T23:54:32.581Z,86.40
2018-04-21T23:57:02.109Z,86.80
2018-04-21T23:59:30.748Z,87.30
